sensor_id;sensor_type;location;lat;lon;timestamp;pressure;altitude;pressure_sealevel;temperature;humidity
61474;BME280;53694;49.784;30.150;2022-09-09T10:16:26;100135.36;;;20.41;33.24
61474;BME280;53694;49.784;30.150;2022-09-09T10:18:54;100129.91;;;20.31;33.56
61474;BME280;53694;49.784;30.150;2022-09-09T10:22:50;100135.53;;;20.27;33.91
61474;BME280;53694;49.784;30.150;2022-09-09T10:28:16;100136.15;;;20.04;34.28
61474;BME280;53694;49.784;30.150;2022-09-09T10:29:23;100138.15;;;20.04;34.61
61474;BME280;53694;49.784;30.150;2022-09-09T10:30:42;100137.39;;;20.00;34.40
61474;BME280;53694;49.784;30.150;2022-09-09T10:36:44;100132.09;;;19.71;34.41
61474;BME280;53694;49.784;30.150;2022-09-09T10:39:33;100135.75;;;19.61;34.41
61474;BME280;53694;49.784;30.150;2022-09-09T10:42:01;100133.84;;;19.47;34.61
61474;BME280;53694;49.784;30.150;2022-09-09T10:45:59;100147.50;;;19.27;34.40
61474;BME280;53694;49.784;30.150;2022-09-09T10:47:04;100136.43;;;19.20;34.94
61474;BME280;53694;49.784;30.150;2022-09-09T10:48:10;100132.06;;;19.15;34.59
61474;BME280;53694;49.784;30.150;2022-09-09T10:55:23;100125.47;;;18.88;35.84
61474;BME280;53694;49.784;30.150;2022-09-09T10:56:24;100126.27;;;18.88;36.03
61474;BME280;53694;49.784;30.150;2022-09-09T10:58:40;100124.69;;;18.87;36.16
61474;BME280;53694;49.784;30.150;2022-09-09T10:59:45;100127.06;;;18.85;36.49
61474;BME280;53694;49.784;30.150;2022-09-09T11:00:53;100129.06;;;18.85;36.86
61474;BME280;53694;49.784;30.150;2022-09-09T11:02:02;100123.91;;;18.83;38.06
61474;BME280;53694;49.784;30.150;2022-09-09T11:03:04;100116.78;;;18.79;38.19
61474;BME280;53694;49.784;30.150;2022-09-09T11:05:44;100123.58;;;18.70;39.67
61474;BME280;53694;49.784;30.150;2022-09-09T11:06:55;100117.63;;;18.65;39.85
61474;BME280;53694;49.784;30.150;2022-09-09T11:08:03;100114.02;;;18.64;41.03
61474;BME280;53694;49.784;30.150;2022-09-09T11:09:03;100113.23;;;18.64;40.81
61474;BME280;53694;49.784;30.150;2022-09-09T11:10:13;100113.66;;;18.59;41.08
61474;BME280;53694;49.784;30.150;2022-09-09T11:11:14;100116.45;;;18.55;40.40
61474;BME280;53694;49.784;30.150;2022-09-09T11:12:18;100110.11;;;18.51;40.64
61474;BME280;53694;49.784;30.150;2022-09-09T11:14:43;100106.53;;;18.51;41.83
61474;BME280;53694;49.784;30.150;2022-09-09T11:17:26;100112.09;;;18.51;41.11
61474;BME280;53694;49.784;30.150;2022-09-09T11:18:23;100110.11;;;18.51;41.47
61474;BME280;53694;49.784;30.150;2022-09-09T11:19:37;100100.97;;;18.51;41.90
61474;BME280;53694;49.784;30.150;2022-09-09T11:20:40;100110.11;;;18.51;42.75
61474;BME280;53694;49.784;30.150;2022-09-09T11:21:47;100096.98;;;18.52;42.38
61474;BME280;53694;49.784;30.150;2022-09-09T11:22:56;100100.97;;;18.51;42.87
61474;BME280;53694;49.784;30.150;2022-09-09T11:24:13;100097.41;;;18.46;41.72
61474;BME280;53694;49.784;30.150;2022-09-09T11:25:26;100098.61;;;18.45;42.04
61474;BME280;53694;49.784;30.150;2022-09-09T11:30:20;100100.24;;;18.39;42.47
61474;BME280;53694;49.784;30.150;2022-09-09T11:32:58;100105.82;;;18.32;42.99
61474;BME280;53694;49.784;30.150;2022-09-09T11:36:53;100105.05;;;18.24;44.57
61474;BME280;53694;49.784;30.150;2022-09-09T11:38:16;100103.06;;;18.18;44.22
61474;BME280;53694;49.784;30.150;2022-09-09T11:40:28;100101.91;;;18.05;41.18
61474;BME280;53694;49.784;30.150;2022-09-09T11:41:36;100103.52;;;17.98;43.36
61474;BME280;53694;49.784;30.150;2022-09-09T11:42:38;100103.52;;;17.98;43.36
61474;BME280;53694;49.784;30.150;2022-09-09T11:43:43;100102.73;;;17.98;42.50
61474;BME280;53694;49.784;30.150;2022-09-09T11:44:45;100099.55;;;17.99;43.36
61474;BME280;53694;49.784;30.150;2022-09-09T11:45:55;100102.73;;;18.02;43.61
61474;BME280;53694;49.784;30.150;2022-09-09T11:46:58;100112.23;;;18.04;43.66
61474;BME280;53694;49.784;30.150;2022-09-09T11:48:01;100116.21;;;18.07;44.03
61474;BME280;53694;49.784;30.150;2022-09-09T11:49:06;100117.79;;;18.08;43.28
61474;BME280;53694;49.784;30.150;2022-09-09T11:52:42;100113.02;;;18.05;42.76
61474;BME280;53694;49.784;30.150;2022-09-09T11:54:00;100117.01;;;18.00;42.84
61474;BME280;53694;49.784;30.150;2022-09-09T11:55:08;100113.06;;;17.90;43.67
61474;BME280;53694;49.784;30.150;2022-09-09T11:56:10;100110.70;;;17.85;44.09
61474;BME280;53694;49.784;30.150;2022-09-09T11:57:22;100112.68;;;17.81;43.90
61474;BME280;53694;49.784;30.150;2022-09-09T11:58:22;100109.11;;;17.77;44.89
61474;BME280;53694;49.784;30.150;2022-09-09T11:59:31;100105.92;;;17.75;44.13
61474;BME280;53694;49.784;30.150;2022-09-09T12:01:43;100105.92;;;17.75;44.84
61474;BME280;53694;49.784;30.150;2022-09-09T12:02:49;100101.16;;;17.72;44.85
61474;BME280;53694;49.784;30.150;2022-09-09T12:04:01;100109.87;;;17.70;45.89
61474;BME280;53694;49.784;30.150;2022-09-09T12:05:07;100106.30;;;17.70;46.04
61474;BME280;53694;49.784;30.150;2022-09-09T12:06:19;100103.94;;;17.68;45.04
61474;BME280;53694;49.784;30.150;2022-09-09T12:07:45;100103.55;;;17.63;45.62
61474;BME280;53694;49.784;30.150;2022-09-09T12:08:46;100103.93;;;17.61;46.67
61474;BME280;53694;49.784;30.150;2022-09-09T12:09:59;100104.34;;;17.60;46.10
61474;BME280;53694;49.784;30.150;2022-09-09T12:11:02;100105.91;;;17.57;45.79
61474;BME280;53694;49.784;30.150;2022-09-09T12:13:20;100098.39;;;17.51;46.53
61474;BME280;53694;49.784;30.150;2022-09-09T12:14:37;100100.75;;;17.48;47.37
61474;BME280;53694;49.784;30.150;2022-09-09T12:16:45;100094.03;;;17.42;46.78
61474;BME280;53694;49.784;30.150;2022-09-09T12:17:51;100095.22;;;17.38;46.62
61474;BME280;53694;49.784;30.150;2022-09-09T12:19:04;100091.64;;;17.34;46.80
61474;BME280;53694;49.784;30.150;2022-09-09T12:21:35;100097.97;;;17.27;47.25
61474;BME280;53694;49.784;30.150;2022-09-09T12:23:49;100099.56;;;17.17;48.64
61474;BME280;53694;49.784;30.150;2022-09-09T12:32:12;100114.61;;;17.09;52.59
61474;BME280;53694;49.784;30.150;2022-09-09T12:33:17;100127.70;;;17.12;53.12
61474;BME280;53694;49.784;30.150;2022-09-09T12:35:31;100132.05;;;17.10;52.48
61474;BME280;53694;49.784;30.150;2022-09-09T12:36:33;100132.05;;;17.10;53.24
61474;BME280;53694;49.784;30.150;2022-09-09T12:37:37;100147.11;;;17.09;53.10
61474;BME280;53694;49.784;30.150;2022-09-09T12:38:41;100155.42;;;17.05;52.24
61474;BME280;53694;49.784;30.150;2022-09-09T12:39:49;100163.73;;;17.02;52.64
61474;BME280;53694;49.784;30.150;2022-09-09T12:40:58;100174.05;;;17.01;52.39
61474;BME280;53694;49.784;30.150;2022-09-09T12:42:00;100180.78;;;17.00;52.30
61474;BME280;53694;49.784;30.150;2022-09-09T12:43:16;100195.03;;;16.98;51.88
61474;BME280;53694;49.784;30.150;2022-09-09T12:44:08;100198.61;;;16.95;51.98
61474;BME280;53694;49.784;30.150;2022-09-09T12:45:22;100206.52;;;16.93;51.64
61474;BME280;53694;49.784;30.150;2022-09-09T12:46:35;100204.93;;;16.92;50.45
61474;BME280;53694;49.784;30.150;2022-09-09T12:47:43;100204.93;;;16.92;50.45
61474;BME280;53694;49.784;30.150;2022-09-09T12:48:44;100208.89;;;16.91;50.60
61474;BME280;53694;49.784;30.150;2022-09-09T12:49:47;100206.49;;;16.90;50.59
61474;BME280;53694;49.784;30.150;2022-09-09T12:50:51;100202.92;;;16.89;50.55
61474;BME280;53694;49.784;30.150;2022-09-09T12:51:55;100192.63;;;16.90;50.55
61474;BME280;53694;49.784;30.150;2022-09-09T12:53:02;100199.36;;;16.89;50.82
61474;BME280;53694;49.784;30.150;2022-09-09T12:54:05;100199.34;;;16.85;51.41
61474;BME280;53694;49.784;30.150;2022-09-09T12:55:07;100194.17;;;16.80;52.21
61474;BME280;53694;49.784;30.150;2022-09-09T12:56:17;100191.41;;;16.80;52.82
61474;BME280;53694;49.784;30.150;2022-09-09T12:57:15;100191.83;;;16.82;54.07
61474;BME280;53694;49.784;30.150;2022-09-09T12:58:18;100196.18;;;16.83;54.23
61474;BME280;53694;49.784;30.150;2022-09-09T12:59:25;100188.67;;;16.87;54.61
61474;BME280;53694;49.784;30.150;2022-09-09T13:00:27;100197.01;;;16.91;55.17
61474;BME280;53694;49.784;30.150;2022-09-09T13:01:31;100190.66;;;16.94;54.36
61474;BME280;53694;49.784;30.150;2022-09-09T13:02:33;100189.86;;;16.93;54.43
61474;BME280;53694;49.784;30.150;2022-09-09T13:03:41;100196.61;;;16.92;54.96
61474;BME280;53694;49.784;30.150;2022-09-09T13:04:40;100191.06;;;16.92;55.10
61474;BME280;53694;49.784;30.150;2022-09-09T13:05:42;100180.35;;;16.94;54.81
61474;BME280;53694;49.784;30.150;2022-09-09T13:06:44;100185.91;;;16.98;54.34
61474;BME280;53694;49.784;30.150;2022-09-09T13:07:45;100186.72;;;17.02;54.58
61474;BME280;53694;49.784;30.150;2022-09-09T13:08:47;100176.44;;;17.06;55.07
61474;BME280;53694;49.784;30.150;2022-09-09T13:09:49;100176.45;;;17.10;54.58
61474;BME280;53694;49.784;30.150;2022-09-09T13:10:54;100170.91;;;17.13;54.14
61474;BME280;53694;49.784;30.150;2022-09-09T13:11:56;100171.72;;;17.17;53.94
61474;BME280;53694;49.784;30.150;2022-09-09T13:12:59;100177.28;;;17.21;54.22
61474;BME280;53694;49.784;30.150;2022-09-09T13:14:01;100170.92;;;17.24;54.06
61474;BME280;53694;49.784;30.150;2022-09-09T13:15:09;100171.71;;;17.24;54.36
61474;BME280;53694;49.784;30.150;2022-09-09T13:16:29;100167.34;;;17.20;53.36
61474;BME280;53694;49.784;30.150;2022-09-09T13:17:31;100168.92;;;17.14;53.74
61474;BME280;53694;49.784;30.150;2022-09-09T13:18:37;100159.01;;;17.09;54.36
61474;BME280;53694;49.784;30.150;2022-09-09T13:19:43;100153.45;;;17.09;54.86
61474;BME280;53694;49.784;30.150;2022-09-09T13:20:49;100146.33;;;17.08;54.22
61474;BME280;53694;49.784;30.150;2022-09-09T13:21:51;100151.09;;;17.08;54.03
61474;BME280;53694;49.784;30.150;2022-09-09T13:22:54;100143.13;;;17.06;54.69
61474;BME280;53694;49.784;30.150;2022-09-09T13:23:56;100151.07;;;17.04;55.17
61474;BME280;53694;49.784;30.150;2022-09-09T13:26:27;100151.02;;;16.93;55.05
61474;BME280;53694;49.784;30.150;2022-09-09T13:27:35;100142.30;;;16.88;55.09
61474;BME280;53694;49.784;30.150;2022-09-09T13:28:37;100147.81;;;16.81;55.70
61474;BME280;53694;49.784;30.150;2022-09-09T13:29:38;100147.80;;;16.77;55.84
61474;BME280;53694;49.784;30.150;2022-09-09T13:30:40;100148.59;;;16.74;56.22
61474;BME280;53694;49.784;30.150;2022-09-09T13:31:42;100146.56;;;16.71;56.35
61474;BME280;53694;49.784;30.150;2022-09-09T13:32:43;100148.53;;;16.67;57.40
61474;BME280;53694;49.784;30.150;2022-09-09T13:33:45;100148.53;;;16.67;57.40
61474;BME280;53694;49.784;30.150;2022-09-09T13:36:11;100145.31;;;16.54;57.73
61474;BME280;53694;49.784;30.150;2022-09-09T13:38:23;100136.48;;;16.34;58.95
61474;BME280;53694;49.784;30.150;2022-09-09T13:39:24;100141.56;;;16.21;59.41
61474;BME280;53694;49.784;30.150;2022-09-09T13:40:26;100137.55;;;16.12;60.59
61474;BME280;53694;49.784;30.150;2022-09-09T13:41:36;100148.19;;;16.03;61.32
61474;BME280;53694;49.784;30.150;2022-09-09T13:42:40;100137.84;;;15.96;61.37
61474;BME280;53694;49.784;30.150;2022-09-09T13:43:45;100145.75;;;15.94;62.20
61474;BME280;53694;49.784;30.150;2022-09-09T13:44:47;100147.31;;;15.91;61.77
61474;BME280;53694;49.784;30.150;2022-09-09T13:45:55;100141.77;;;15.91;61.23
61474;BME280;53694;49.784;30.150;2022-09-09T13:48:17;100138.14;;;15.84;62.84
61474;BME280;53694;49.784;30.150;2022-09-09T13:49:19;100135.77;;;15.82;63.04
61474;BME280;53694;49.784;30.150;2022-09-09T13:50:24;100133.77;;;15.79;63.44
61474;BME280;53694;49.784;30.150;2022-09-09T13:52:38;100136.11;;;15.73;62.22
61474;BME280;53694;49.784;30.150;2022-09-09T13:53:39;100141.61;;;15.70;61.62
61474;BME280;53694;49.784;30.150;2022-09-09T13:54:41;100136.83;;;15.67;61.96
61474;BME280;53694;49.784;30.150;2022-09-09T13:55:42;100139.56;;;15.63;62.82
61474;BME280;53694;49.784;30.150;2022-09-09T13:56:44;100134.75;;;15.57;62.64
61474;BME280;53694;49.784;30.150;2022-09-09T13:57:58;100133.52;;;15.50;63.51
61474;BME280;53694;49.784;30.150;2022-09-09T13:59:00;100137.80;;;15.44;63.00
61474;BME280;53694;49.784;30.150;2022-09-09T14:00:02;100138.91;;;15.36;62.79
61474;BME280;53694;49.784;30.150;2022-09-09T14:01:04;100134.91;;;15.30;63.07
61474;BME280;53694;49.784;30.150;2022-09-09T14:02:07;100138.03;;;15.25;63.62
61474;BME280;53694;49.784;30.150;2022-09-09T14:03:08;100140.38;;;15.23;64.38
61474;BME280;53694;49.784;30.150;2022-09-09T14:04:10;100139.97;;;15.21;65.48
61474;BME280;53694;49.784;30.150;2022-09-09T14:05:12;100146.61;;;15.13;63.71
61474;BME280;53694;49.784;30.150;2022-09-09T14:06:14;100151.66;;;15.07;64.52
61474;BME280;53694;49.784;30.150;2022-09-09T14:07:17;100143.71;;;15.02;63.70
61474;BME280;53694;49.784;30.150;2022-09-09T14:08:26;100146.44;;;14.98;63.25
61474;BME280;53694;49.784;30.150;2022-09-09T14:09:28;100155.91;;;14.97;63.24
61474;BME280;53694;49.784;30.150;2022-09-09T14:10:30;100151.56;;;14.96;62.75
61474;BME280;53694;49.784;30.150;2022-09-09T14:11:32;100159.86;;;14.96;63.20
61474;BME280;53694;49.784;30.150;2022-09-09T14:12:34;100157.45;;;14.95;63.23
61474;BME280;53694;49.784;30.150;2022-09-09T14:13:35;100157.00;;;14.89;63.01
61474;BME280;53694;49.784;30.150;2022-09-09T14:14:37;100153.74;;;14.80;62.66
61474;BME280;53694;49.784;30.150;2022-09-09T14:15:39;100153.74;;;14.80;62.66
61474;BME280;53694;49.784;30.150;2022-09-09T14:16:40;100154.12;;;14.79;62.62
61474;BME280;53694;49.784;30.150;2022-09-09T14:17:42;100156.46;;;14.77;63.42
61474;BME280;53694;49.784;30.150;2022-09-09T14:18:45;100148.55;;;14.75;63.52
61474;BME280;53694;49.784;30.150;2022-09-09T14:19:46;100148.55;;;14.75;64.01
61474;BME280;53694;49.784;30.150;2022-09-09T14:20:48;100153.29;;;14.74;64.22
61474;BME280;53694;49.784;30.150;2022-09-09T14:21:50;100153.29;;;14.74;64.18
61474;BME280;53694;49.784;30.150;2022-09-09T14:22:52;100153.29;;;14.74;64.04
61474;BME280;53694;49.784;30.150;2022-09-09T14:23:54;100151.31;;;14.75;63.98
61474;BME280;53694;49.784;30.150;2022-09-09T14:24:55;100143.38;;;14.73;64.21
61474;BME280;53694;49.784;30.150;2022-09-09T14:25:57;100149.73;;;14.74;64.84
61474;BME280;53694;49.784;30.150;2022-09-09T14:26:59;100148.50;;;14.71;64.26
61474;BME280;53694;49.784;30.150;2022-09-09T14:28:01;100143.77;;;14.72;64.05
61474;BME280;53694;49.784;30.150;2022-09-09T14:29:03;100146.53;;;14.72;63.54
61474;BME280;53694;49.784;30.150;2022-09-09T14:30:05;100146.13;;;14.70;63.42
61474;BME280;53694;49.784;30.150;2022-09-09T14:31:07;100148.07;;;14.69;63.73
61474;BME280;53694;49.784;30.150;2022-09-09T14:32:09;100150.05;;;14.69;64.12
61474;BME280;53694;49.784;30.150;2022-09-09T14:33:13;100143.72;;;14.68;64.58
61474;BME280;53694;49.784;30.150;2022-09-09T14:34:15;100139.76;;;14.66;63.98
61474;BME280;53694;49.784;30.150;2022-09-09T14:35:16;100137.35;;;14.64;63.75
61474;BME280;53694;49.784;30.150;2022-09-09T14:36:19;100132.95;;;14.60;63.38
61474;BME280;53694;49.784;30.150;2022-09-09T14:37:21;100126.23;;;14.57;63.88
61474;BME280;53694;49.784;30.150;2022-09-09T14:38:23;100136.80;;;14.52;63.77
61474;BME280;53694;49.784;30.150;2022-09-09T14:39:25;100140.33;;;14.48;64.18
61474;BME280;53694;49.784;30.150;2022-09-09T14:40:28;100144.98;;;14.44;64.06
61474;BME280;53694;49.784;30.150;2022-09-09T14:41:30;100139.02;;;14.42;64.93
61474;BME280;53694;49.784;30.150;2022-09-09T14:42:32;100140.20;;;14.41;65.28
61474;BME280;53694;49.784;30.150;2022-09-09T14:43:33;100140.55;;;14.40;64.88
61474;BME280;53694;49.784;30.150;2022-09-09T14:44:35;100144.14;;;14.40;64.73
61474;BME280;53694;49.784;30.150;2022-09-09T14:45:36;100144.14;;;14.40;64.50
61474;BME280;53694;49.784;30.150;2022-09-09T14:46:38;100145.67;;;14.38;64.91
61474;BME280;53694;49.784;30.150;2022-09-09T14:47:39;100147.20;;;14.35;65.28
61474;BME280;53694;49.784;30.150;2022-09-09T14:48:42;100141.66;;;14.32;65.17
61474;BME280;53694;49.784;30.150;2022-09-09T14:49:43;100143.59;;;14.31;64.69
61474;BME280;53694;49.784;30.150;2022-09-09T14:50:45;100143.98;;;14.30;64.96
61474;BME280;53694;49.784;30.150;2022-09-09T14:51:47;100149.10;;;14.28;65.91
61474;BME280;53694;49.784;30.150;2022-09-09T14:52:48;100145.11;;;14.25;65.89
61474;BME280;53694;49.784;30.150;2022-09-09T14:53:52;100143.08;;;14.22;66.16
61474;BME280;53694;49.784;30.150;2022-09-09T14:54:54;100140.27;;;14.18;66.06
61474;BME280;53694;49.784;30.150;2022-09-09T14:56:04;100142.63;;;14.16;66.23
61474;BME280;53694;49.784;30.150;2022-09-09T14:57:06;100144.16;;;14.14;66.65
61474;BME280;53694;49.784;30.150;2022-09-09T14:58:08;100142.16;;;14.11;66.31
61474;BME280;53694;49.784;30.150;2022-09-09T14:59:09;100146.06;;;14.10;65.82
61474;BME280;53694;49.784;30.150;2022-09-09T15:00:13;100147.62;;;14.07;66.26
61474;BME280;53694;49.784;30.150;2022-09-09T15:01:19;100140.07;;;14.04;66.68
61474;BME280;53694;49.784;30.150;2022-09-09T15:02:21;100138.48;;;14.03;67.31
61474;BME280;53694;49.784;30.150;2022-09-09T15:03:22;100131.73;;;14.00;67.39
61474;BME280;53694;49.784;30.150;2022-09-09T15:04:24;100135.26;;;13.97;67.49
61474;BME280;53694;49.784;30.150;2022-09-09T15:05:26;100145.86;;;13.95;67.89
61474;BME280;53694;49.784;30.150;2022-09-09T15:06:29;100133.23;;;13.94;67.78
61474;BME280;53694;49.784;30.150;2022-09-09T15:07:30;100136.73;;;13.91;67.71
61474;BME280;53694;49.784;30.150;2022-09-09T15:08:32;100126.80;;;13.87;68.20
61474;BME280;53694;49.784;30.150;2022-09-09T15:09:33;100125.95;;;13.83;68.12
61474;BME280;53694;49.784;30.150;2022-09-09T15:10:35;100121.95;;;13.80;68.22
61474;BME280;53694;49.784;30.150;2022-09-09T15:11:37;100132.14;;;13.76;68.57
61474;BME280;53694;49.784;30.150;2022-09-09T15:12:39;100133.64;;;13.70;69.21
61474;BME280;53694;49.784;30.150;2022-09-09T15:13:42;100125.23;;;13.63;69.22
61474;BME280;53694;49.784;30.150;2022-09-09T15:14:45;100121.62;;;13.59;69.34
61474;BME280;53694;49.784;30.150;2022-09-09T15:15:46;100120.77;;;13.55;69.88
61474;BME280;53694;49.784;30.150;2022-09-09T15:16:48;100124.28;;;13.52;69.94
61474;BME280;53694;49.784;30.150;2022-09-09T15:17:50;100129.36;;;13.49;69.44
61474;BME280;53694;49.784;30.150;2022-09-09T15:18:53;100124.56;;;13.46;69.54
61474;BME280;53694;49.784;30.150;2022-09-09T15:19:56;100129.29;;;13.46;69.66
61474;BME280;53694;49.784;30.150;2022-09-09T15:20:58;100130.84;;;13.43;69.71
61474;BME280;53694;49.784;30.150;2022-09-09T15:21:59;100129.61;;;13.41;70.01
61474;BME280;53694;49.784;30.150;2022-09-09T15:23:01;100137.47;;;13.39;69.70
61474;BME280;53694;49.784;30.150;2022-09-09T15:24:04;100141.75;;;13.36;70.01
61474;BME280;53694;49.784;30.150;2022-09-09T15:25:07;100136.36;;;13.43;69.70
61474;BME280;53694;49.784;30.150;2022-09-09T15:26:09;100145.31;;;13.60;69.71
61474;BME280;53694;49.784;30.150;2022-09-09T15:27:11;100139.34;;;13.81;69.57
61474;BME280;53694;49.784;30.150;2022-09-09T15:28:13;100138.11;;;14.05;68.68
61474;BME280;53694;49.784;30.150;2022-09-09T15:29:14;100135.13;;;14.17;68.02
61474;BME280;53694;49.784;30.150;2022-09-09T15:30:17;100136.36;;;14.19;68.12
61474;BME280;53694;49.784;30.150;2022-09-09T15:31:25;100131.52;;;14.13;68.03
61474;BME280;53694;49.784;30.150;2022-09-09T15:32:27;100136.52;;;14.04;67.84
61474;BME280;53694;49.784;30.150;2022-09-09T15:33:29;100129.30;;;13.95;68.47
61474;BME280;53694;49.784;30.150;2022-09-09T15:34:30;100127.59;;;13.87;68.69
61474;BME280;53694;49.784;30.150;2022-09-09T15:35:32;100129.03;;;13.78;69.17
61474;BME280;53694;49.784;30.150;2022-09-09T15:36:41;100132.05;;;13.69;69.37
61474;BME280;53694;49.784;30.150;2022-09-09T15:37:43;100128.75;;;13.60;69.81
61474;BME280;53694;49.784;30.150;2022-09-09T15:38:45;100123.48;;;13.51;70.61
61474;BME280;53694;49.784;30.150;2022-09-09T15:39:47;100133.95;;;13.42;70.26
61474;BME280;53694;49.784;30.150;2022-09-09T15:40:55;100131.09;;;13.35;70.69
61474;BME280;53694;49.784;30.150;2022-09-09T15:41:56;100127.58;;;13.38;71.02
61474;BME280;53694;49.784;30.150;2022-09-09T15:42:59;100130.75;;;13.63;70.56
61474;BME280;53694;49.784;30.150;2022-09-09T15:44:01;100132.50;;;13.97;69.64
61474;BME280;53694;49.784;30.150;2022-09-09T15:45:04;100131.91;;;14.41;68.81
61474;BME280;53694;49.784;30.150;2022-09-09T15:47:29;100145.16;;;15.26;65.04
61474;BME280;53694;49.784;30.150;2022-09-09T15:48:32;100136.63;;;15.45;64.41
61474;BME280;53694;49.784;30.150;2022-09-09T15:49:34;100135.83;;;15.45;63.59
61474;BME280;53694;49.784;30.150;2022-09-09T15:50:36;100131.37;;;15.33;63.26
61474;BME280;53694;49.784;30.150;2022-09-09T15:51:39;100134.76;;;15.16;63.58
61474;BME280;53694;49.784;30.150;2022-09-09T15:52:41;100131.41;;;14.96;64.42
61474;BME280;53694;49.784;30.150;2022-09-09T15:53:43;100135.91;;;14.74;64.81
61474;BME280;53694;49.784;30.150;2022-09-09T15:54:45;100128.56;;;14.55;66.07
61474;BME280;53694;49.784;30.150;2022-09-09T15:55:46;100140.27;;;14.18;66.65
61474;BME280;53694;49.784;30.150;2022-09-09T15:56:51;100140.27;;;14.18;66.65
61474;BME280;53694;49.784;30.150;2022-09-09T15:57:53;100129.35;;;13.99;67.19
61474;BME280;53694;49.784;30.150;2022-09-09T15:58:59;100125.89;;;13.79;68.23
61474;BME280;53694;49.784;30.150;2022-09-09T16:00:03;100133.52;;;13.63;68.70
61474;BME280;53694;49.784;30.150;2022-09-09T16:01:09;100130.53;;;13.48;69.33
61474;BME280;53694;49.784;30.150;2022-09-09T16:02:11;100141.75;;;13.36;69.53
61474;BME280;53694;49.784;30.150;2022-09-09T16:03:14;100116.96;;;13.17;69.75
61474;BME280;53694;49.784;30.150;2022-09-09T16:04:17;100126.38;;;13.16;70.59
61474;BME280;53694;49.784;30.150;2022-09-09T16:05:19;100124.66;;;13.08;70.97
61474;BME280;53694;49.784;30.150;2022-09-09T16:06:22;100125.41;;;13.05;71.12
61474;BME280;53694;49.784;30.150;2022-09-09T16:07:25;100125.09;;;13.10;71.46
61474;BME280;53694;49.784;30.150;2022-09-09T16:08:38;100120.84;;;13.35;71.18
61474;BME280;53694;49.784;30.150;2022-09-09T16:09:40;100123.39;;;13.70;70.13
61474;BME280;53694;49.784;30.150;2022-09-09T16:10:42;100121.78;;;14.22;68.03
61474;BME280;53694;49.784;30.150;2022-09-09T16:11:44;100119.32;;;14.74;66.20
61474;BME280;53694;49.784;30.150;2022-09-09T16:12:45;100117.41;;;15.19;64.83
61474;BME280;53694;49.784;30.150;2022-09-09T16:13:48;100114.55;;;15.53;63.84
61474;BME280;53694;49.784;30.150;2022-09-09T16:14:50;100113.92;;;15.70;62.64
61474;BME280;53694;49.784;30.150;2022-09-09T16:15:55;100121.04;;;15.71;61.90
61474;BME280;53694;49.784;30.150;2022-09-09T16:16:57;100113.43;;;15.61;61.86
61474;BME280;53694;49.784;30.150;2022-09-09T16:17:59;100121.59;;;15.43;62.46
61474;BME280;53694;49.784;30.150;2022-09-09T16:19:03;100120.61;;;15.24;63.21
61474;BME280;53694;49.784;30.150;2022-09-09T16:20:06;100114.08;;;15.03;63.46
61474;BME280;53694;49.784;30.150;2022-09-09T16:21:14;100115.03;;;14.80;63.53
61474;BME280;53694;49.784;30.150;2022-09-09T16:22:16;100117.55;;;14.59;63.83
61474;BME280;53694;49.784;30.150;2022-09-09T16:23:19;100112.91;;;14.36;64.69
61474;BME280;53694;49.784;30.150;2022-09-09T16:24:20;100118.94;;;14.15;65.75
61474;BME280;53694;49.784;30.150;2022-09-09T16:25:22;100111.99;;;13.98;66.45
61474;BME280;53694;49.784;30.150;2022-09-09T16:26:25;100113.67;;;13.80;67.02
61474;BME280;53694;49.784;30.150;2022-09-09T16:27:27;100119.42;;;13.68;67.73
61474;BME280;53694;49.784;30.150;2022-09-09T16:28:28;100114.52;;;13.58;68.07
61474;BME280;53694;49.784;30.150;2022-09-09T16:29:30;100122.63;;;13.47;68.20
61474;BME280;53694;49.784;30.150;2022-09-09T16:30:32;100116.92;;;13.36;68.24
61474;BME280;53694;49.784;30.150;2022-09-09T16:31:33;100119.92;;;13.28;68.55
61474;BME280;53694;49.784;30.150;2022-09-09T16:32:35;100110.69;;;13.20;69.11
61474;BME280;53694;49.784;30.150;2022-09-09T16:33:37;100118.48;;;13.14;69.57
61474;BME280;53694;49.784;30.150;2022-09-09T16:34:39;100116.38;;;13.08;69.40
61474;BME280;53694;49.784;30.150;2022-09-09T16:35:41;100111.17;;;13.03;69.64
61474;BME280;53694;49.784;30.150;2022-09-09T16:36:43;100114.23;;;12.97;69.04
61474;BME280;53694;49.784;30.150;2022-09-09T16:37:45;100111.03;;;12.95;69.14
61474;BME280;53694;49.784;30.150;2022-09-09T16:38:47;100118.51;;;12.95;69.76
61474;BME280;53694;49.784;30.150;2022-09-09T16:39:49;100110.98;;;12.92;69.64
61474;BME280;53694;49.784;30.150;2022-09-09T16:40:50;100111.34;;;12.90;70.26
61474;BME280;53694;49.784;30.150;2022-09-09T16:41:52;100114.09;;;12.90;70.36
61474;BME280;53694;49.784;30.150;2022-09-09T16:42:53;100118.02;;;12.89;70.77
61474;BME280;53694;49.784;30.150;2022-09-09T16:43:57;100108.34;;;12.99;71.11
61474;BME280;53694;49.784;30.150;2022-09-09T16:44:58;100113.17;;;13.25;70.37
61474;BME280;53694;49.784;30.150;2022-09-09T16:46:00;100104.77;;;13.64;68.37
61474;BME280;53694;49.784;30.150;2022-09-09T16:47:02;100112.13;;;14.09;67.58
61474;BME280;53694;49.784;30.150;2022-09-09T16:48:03;100109.64;;;14.57;66.16
61474;BME280;53694;49.784;30.150;2022-09-09T16:49:12;100109.64;;;14.94;64.40
61474;BME280;53694;49.784;30.150;2022-09-09T16:50:10;100108.70;;;15.17;63.80
61474;BME280;53694;49.784;30.150;2022-09-09T16:51:15;100117.84;;;15.21;63.32